createdAt,value
2018-12-29T00:02:09.354Z,31.07
2018-12-29T00:04:37.763Z,30.62
2018-12-29T00:07:06.158Z,29.23
2018-12-29T00:09:34.902Z,31.80
2018-12-29T00:12:03.577Z,28.40
2018-12-29T00:14:31.979Z,28.15
2018-12-29T00:17:00.391Z,27.20
2018-12-29T00:19:28.779Z,27.65
2018-12-29T00:21:57.180Z,27.70
2018-12-29T00:24:25.584Z,28.52
2018-12-29T00:26:53.992Z,30.60
2018-12-29T00:29:22.392Z,28.45
2018-12-29T00:31:51.146Z,29.75
2018-12-29T00:34:19.544Z,29.82
2018-12-29T00:36:47.941Z,31.45
2018-12-29T00:39:16.345Z,31.97
2018-12-29T00:41:45.055Z,31.17
2018-12-29T00:44:13.743Z,31.37
2018-12-29T00:46:42.167Z,30.08
2018-12-29T00:49:10.562Z,29.70
2018-12-29T00:51:38.958Z,30.30
2018-12-29T00:54:07.607Z,29.70
2018-12-29T00:56:36.260Z,29.18
2018-12-29T00:59:04.662Z,29.90
2018-12-29T01:01:33.059Z,30.35
2018-12-29T01:04:01.466Z,30.32
2018-12-29T01:06:29.853Z,28.32
2018-12-29T01:08:58.560Z,32.88
2018-12-29T01:11:26.959Z,29.57
2018-12-29T01:13:55.634Z,31.62
2018-12-29T01:16:24.027Z,34.67
2018-12-29T01:18:52.438Z,34.25
2018-12-29T01:21:20.829Z,33.40
2018-12-29T01:23:49.230Z,35.78
2018-12-29T01:26:17.934Z,35.03
2018-12-29T01:28:46.339Z,34.10
2018-12-29T01:31:15.004Z,34.35
2018-12-29T01:33:43.623Z,33.02
2018-12-29T01:36:12.280Z,34.55
2018-12-29T01:38:40.678Z,31.20
2018-12-29T01:41:09.330Z,31.65
2018-12-29T01:43:37.717Z,32.30
2018-12-29T01:46:06.126Z,30.90
2018-12-29T01:48:34.521Z,31.93
2018-12-29T01:51:02.935Z,31.52
2018-12-29T01:53:31.329Z,31.68
2018-12-29T01:55:59.725Z,33.88
2018-12-29T01:58:28.131Z,33.53
2018-12-29T02:00:56.778Z,32.50
2018-12-29T02:03:25.234Z,34.30
2018-12-29T02:05:53.642Z,33.45
2018-12-29T02:08:22.035Z,34.08
2018-12-29T02:10:50.453Z,35.43
2018-12-29T02:13:19.190Z,34.20
2018-12-29T02:15:47.875Z,33.30
2018-12-29T02:18:16.266Z,35.20
2018-12-29T02:20:44.891Z,34.95
2018-12-29T02:23:13.628Z,35.43
2018-12-29T02:25:42.030Z,35.10
2018-12-29T02:28:10.687Z,34.55
2018-12-29T02:30:39.155Z,39.00
2018-12-29T02:33:07.854Z,33.42
2018-12-29T02:35:36.358Z,38.35
2018-12-29T02:38:04.773Z,36.17
2018-12-29T02:40:33.414Z,36.85
2018-12-29T02:43:01.819Z,38.63
2018-12-29T02:45:33.289Z,37.53
2018-12-29T02:48:00.586Z,37.03
2018-12-29T02:50:29.212Z,38.08
2018-12-29T02:52:57.618Z,38.60
2018-12-29T02:55:26.343Z,38.15
2018-12-29T02:57:54.737Z,38.55
2018-12-29T03:00:23.134Z,37.88
2018-12-29T03:02:51.783Z,36.55
2018-12-29T03:05:20.476Z,40.33
2018-12-29T03:07:49.131Z,39.05
2018-12-29T03:10:17.706Z,36.85
2018-12-29T03:12:46.431Z,38.98
2018-12-29T03:15:15.075Z,38.20
2018-12-29T03:17:43.797Z,38.85
2018-12-29T03:20:12.211Z,38.42
2018-12-29T03:22:40.611Z,36.77
2018-12-29T03:25:09.010Z,37.15
2018-12-29T03:27:37.420Z,38.65
2018-12-29T03:30:06.898Z,37.38
2018-12-29T03:32:35.301Z,37.00
2018-12-29T03:35:04.203Z,38.83
2018-12-29T03:37:32.821Z,39.90
2018-12-29T03:40:01.572Z,39.73
2018-12-29T03:42:29.962Z,40.60
2018-12-29T03:44:58.634Z,40.12
2018-12-29T03:47:27.030Z,40.95
2018-12-29T03:49:55.708Z,39.92
2018-12-29T03:52:24.097Z,40.95
2018-12-29T03:54:52.676Z,41.02
2018-12-29T03:57:21.080Z,39.05
2018-12-29T03:59:49.495Z,43.00
2018-12-29T04:02:17.892Z,42.53
2018-12-29T04:04:46.291Z,41.83
2018-12-29T04:07:14.975Z,45.35
2018-12-29T04:09:43.375Z,42.65
2018-12-29T04:12:14.318Z,42.58
2018-12-29T04:14:43.895Z,45.70
2018-12-29T04:17:12.290Z,45.88
2018-12-29T04:19:40.963Z,47.45
2018-12-29T04:22:09.655Z,44.05
2018-12-29T04:24:38.046Z,44.15
2018-12-29T04:27:06.446Z,45.60
2018-12-29T04:29:35.103Z,44.25
2018-12-29T04:32:03.506Z,48.33
2018-12-29T04:34:32.240Z,47.75
2018-12-29T04:37:00.952Z,49.80
2018-12-29T04:39:29.646Z,48.13
2018-12-29T04:41:58.048Z,47.05
2018-12-29T04:44:26.454Z,50.65
2018-12-29T04:46:54.859Z,49.63
2018-12-29T04:49:23.490Z,47.30
2018-12-29T04:51:51.894Z,50.15
2018-12-29T04:54:20.290Z,48.90
2018-12-29T04:56:48.685Z,49.20
2018-12-29T04:59:17.391Z,46.75
2018-12-29T05:01:45.779Z,48.95
2018-12-29T05:04:14.182Z,50.63
2018-12-29T05:06:42.573Z,47.25
2018-12-29T05:09:10.986Z,51.37
2018-12-29T05:11:39.699Z,49.95
2018-12-29T05:14:08.106Z,52.43
2018-12-29T05:16:36.507Z,48.92
2018-12-29T05:19:05.143Z,47.27
2018-12-29T05:21:33.537Z,48.83
2018-12-29T05:24:01.937Z,49.08
2018-12-29T05:26:30.587Z,48.98
2018-12-29T05:28:59.037Z,48.87
2018-12-29T05:31:27.708Z,49.00
2018-12-29T05:33:56.102Z,49.77
2018-12-29T05:36:24.518Z,49.93
2018-12-29T05:38:52.915Z,52.20
2018-12-29T05:41:21.326Z,54.88
2018-12-29T05:43:49.727Z,49.42
2018-12-29T05:46:20.544Z,51.30
2018-12-29T05:48:48.253Z,55.92
2018-12-29T05:51:16.659Z,50.60
2018-12-29T05:53:45.049Z,52.83
2018-12-29T05:56:13.462Z,53.65
2018-12-29T05:58:42.174Z,50.38
2018-12-29T06:01:10.872Z,50.60
2018-12-29T06:03:39.266Z,51.42
2018-12-29T06:06:07.678Z,51.30
2018-12-29T06:08:36.071Z,51.50
2018-12-29T06:11:04.797Z,51.70
2018-12-29T06:13:33.193Z,50.17
2018-12-29T06:16:01.859Z,49.73
2018-12-29T06:18:30.256Z,49.67
2018-12-29T06:20:58.657Z,50.38
2018-12-29T06:23:27.054Z,48.95
2018-12-29T06:25:55.462Z,48.30
2018-12-29T06:28:24.164Z,48.23
2018-12-29T06:30:52.574Z,49.25
2018-12-29T06:33:20.962Z,48.65
2018-12-29T06:35:49.370Z,47.17
2018-12-29T06:38:17.797Z,49.85
2018-12-29T06:40:46.205Z,48.30
2018-12-29T06:43:14.596Z,46.85
2018-12-29T06:45:43.014Z,50.03
2018-12-29T06:48:11.415Z,47.98
2018-12-29T06:50:40.090Z,49.45
2018-12-29T06:53:08.481Z,52.98
2018-12-29T06:55:37.173Z,46.02
2018-12-29T06:58:05.573Z,48.65
2018-12-29T07:00:33.981Z,50.20
2018-12-29T07:03:02.374Z,47.80
2018-12-29T07:05:31.083Z,48.30
2018-12-29T07:07:59.493Z,46.75
2018-12-29T07:10:28.049Z,46.85
2018-12-29T07:12:56.457Z,48.35
2018-12-29T07:15:25.073Z,48.38
2018-12-29T07:17:53.490Z,49.20
2018-12-29T07:20:21.894Z,49.42
2018-12-29T07:22:50.555Z,49.65
2018-12-29T07:25:18.958Z,49.60
2018-12-29T07:27:47.623Z,46.70
2018-12-29T07:30:16.311Z,48.20
2018-12-29T07:32:44.709Z,46.40
2018-12-29T07:35:13.106Z,44.45
2018-12-29T07:37:41.858Z,47.15
2018-12-29T07:40:10.552Z,45.60
2018-12-29T07:42:39.350Z,48.33
2018-12-29T07:45:07.745Z,47.75
2018-12-29T07:47:36.147Z,44.42
2018-12-29T07:50:05.309Z,46.60
2018-12-29T07:52:33.706Z,45.88
2018-12-29T07:55:02.097Z,42.05
2018-12-29T07:57:30.834Z,44.65
2018-12-29T07:59:59.242Z,44.00
2018-12-29T08:02:27.905Z,42.60
2018-12-29T08:04:56.298Z,42.93
2018-12-29T08:07:24.707Z,29.20
2018-12-29T08:09:53.097Z,30.25
2018-12-29T08:12:21.503Z,33.08
2018-12-29T08:14:49.960Z,33.50
2018-12-29T08:17:18.370Z,34.50
2018-12-29T08:19:46.763Z,37.50
2018-12-29T08:22:15.171Z,36.60
2018-12-29T08:24:43.562Z,38.63
2018-12-29T08:27:11.986Z,37.08
2018-12-29T08:29:40.688Z,37.13
2018-12-29T08:32:09.086Z,39.60
2018-12-29T08:34:37.492Z,40.95
2018-12-29T08:37:05.893Z,39.63
2018-12-29T08:39:35.135Z,40.28
2018-12-29T08:42:03.809Z,38.40
2018-12-29T08:44:32.218Z,42.48
2018-12-29T08:47:04.463Z,42.27
2018-12-29T08:49:30.747Z,42.40
2018-12-29T08:51:59.156Z,39.00
2018-12-29T08:54:27.552Z,45.10
2018-12-29T08:56:55.946Z,48.25
2018-12-29T08:59:24.346Z,44.77
2018-12-29T09:01:52.751Z,43.23
2018-12-29T09:04:21.158Z,39.23
2018-12-29T09:06:49.859Z,42.88
2018-12-29T09:09:18.547Z,53.28
2018-12-29T09:11:47.240Z,42.03
2018-12-29T09:14:15.652Z,41.85
2018-12-29T09:16:44.295Z,45.33
2018-12-29T09:19:12.703Z,45.78
2018-12-29T09:21:41.365Z,48.38
2018-12-29T09:24:10.046Z,52.00
2018-12-29T09:26:38.733Z,45.80
2018-12-29T09:29:07.421Z,50.90
2018-12-29T09:31:36.108Z,43.40
2018-12-29T09:34:04.794Z,47.43
2018-12-29T09:36:33.195Z,49.18
2018-12-29T09:39:01.874Z,55.90
2018-12-29T09:41:30.548Z,48.45
2018-12-29T09:43:59.235Z,48.55
2018-12-29T09:46:27.638Z,50.50
2018-12-29T09:48:56.039Z,45.85
2018-12-29T09:51:24.780Z,43.17
2018-12-29T09:53:53.190Z,42.73
2018-12-29T09:56:21.577Z,46.33
2018-12-29T09:58:49.978Z,47.58
2018-12-29T10:01:18.388Z,49.58
2018-12-29T10:03:46.781Z,69.47
2018-12-29T10:06:15.183Z,56.95
2018-12-29T10:08:43.581Z,54.00
2018-12-29T10:11:11.999Z,45.90
2018-12-29T10:13:40.703Z,53.55
2018-12-29T10:16:09.114Z,52.43
2018-12-29T10:18:37.508Z,45.05
2018-12-29T10:21:06.250Z,43.70
2018-12-29T10:23:34.651Z,46.28
2018-12-29T10:26:03.063Z,48.95
2018-12-29T10:28:31.458Z,50.90
2018-12-29T10:30:59.884Z,53.98
2018-12-29T10:33:28.277Z,55.38
2018-12-29T10:35:56.942Z,68.17
2018-12-29T10:38:25.333Z,47.48
2018-12-29T10:40:54.003Z,54.48
2018-12-29T10:43:22.694Z,49.40
2018-12-29T10:45:51.183Z,49.27
2018-12-29T10:48:19.587Z,54.48
2018-12-29T10:50:48.242Z,48.40
2018-12-29T10:53:16.931Z,54.63
2018-12-29T10:55:45.338Z,60.33
2018-12-29T10:58:13.994Z,52.98
2018-12-29T11:00:42.410Z,55.78
2018-12-29T11:03:10.806Z,54.80
2018-12-29T11:05:39.213Z,52.62
2018-12-29T11:08:07.923Z,49.35
2018-12-29T11:10:36.593Z,52.83
2018-12-29T11:13:05.286Z,51.65
2018-12-29T11:15:33.995Z,49.23
2018-12-29T11:18:02.661Z,49.65
2018-12-29T11:20:31.371Z,49.25
2018-12-29T11:22:59.775Z,48.55
2018-12-29T11:25:28.166Z,28.70
2018-12-29T11:27:56.899Z,15.78
2018-12-29T11:30:25.299Z,27.55
2018-12-29T11:32:53.775Z,15.65
2018-12-29T11:35:28.511Z,27.17
2018-12-29T11:37:52.659Z,29.45
2018-12-29T11:40:21.541Z,30.40
2018-12-29T11:42:50.351Z,30.90
2018-12-29T11:45:18.750Z,31.23
2018-12-29T11:47:50.012Z,34.92
2018-12-29T11:50:17.286Z,36.80
2018-12-29T11:52:45.700Z,34.18
2018-12-29T11:55:14.461Z,32.93
2018-12-29T11:57:42.991Z,33.02
2018-12-29T12:00:11.663Z,33.80
2018-12-29T12:02:40.080Z,33.23
2018-12-29T12:05:08.482Z,33.28
2018-12-29T12:07:37.258Z,34.00
2018-12-29T12:10:06.541Z,33.18
2018-12-29T12:12:35.206Z,33.88
2018-12-29T12:15:04.170Z,31.80
2018-12-29T12:17:32.578Z,31.75
2018-12-29T12:20:00.975Z,32.30
2018-12-29T12:22:29.386Z,32.28
2018-12-29T12:24:58.249Z,40.48
2018-12-29T12:27:26.897Z,39.15
2018-12-29T12:29:55.575Z,30.72
2018-12-29T12:32:23.992Z,29.48
2018-12-29T12:34:52.930Z,27.60
2018-12-29T12:37:21.346Z,28.42
2018-12-29T12:39:50.230Z,27.90
2018-12-29T12:42:18.928Z,31.30
2018-12-29T12:44:47.322Z,30.35
2018-12-29T12:47:15.733Z,27.27
2018-12-29T12:49:44.480Z,28.15
2018-12-29T12:52:12.883Z,31.77
2018-12-29T12:54:41.286Z,35.43
2018-12-29T12:57:10.327Z,33.88
2018-12-29T12:59:39.121Z,32.90
2018-12-29T13:02:07.519Z,29.45
2018-12-29T13:04:36.193Z,45.67
2018-12-29T13:07:04.603Z,31.97
2018-12-29T13:09:33.012Z,28.55
2018-12-29T13:12:01.410Z,33.20
2018-12-29T13:14:30.103Z,31.35
2018-12-29T13:16:58.504Z,34.13
2018-12-29T13:19:28.632Z,32.15
2018-12-29T13:21:57.188Z,26.93
2018-12-29T13:24:25.871Z,23.67
2018-12-29T13:26:54.282Z,22.07
2018-12-29T13:29:22.692Z,23.85
2018-12-29T13:31:51.094Z,23.35
2018-12-29T13:34:19.498Z,20.45
2018-12-29T13:36:47.894Z,20.88
2018-12-29T13:39:16.342Z,18.85
2018-12-29T13:41:44.733Z,20.80
2018-12-29T13:44:13.449Z,20.55
2018-12-29T13:46:41.855Z,20.75
2018-12-29T13:49:10.253Z,18.87
2018-12-29T13:51:38.971Z,20.75
2018-12-29T13:54:07.379Z,18.62
2018-12-29T13:56:35.773Z,18.60
2018-12-29T13:59:04.425Z,18.82
2018-12-29T14:01:33.111Z,18.45
2018-12-29T14:04:01.519Z,19.55
2018-12-29T14:06:30.167Z,18.02
2018-12-29T14:08:58.854Z,17.52
2018-12-29T14:11:27.539Z,18.82
2018-12-29T14:13:56.005Z,18.32
2018-12-29T14:16:24.397Z,19.02
2018-12-29T14:18:53.181Z,17.62
2018-12-29T14:21:21.587Z,18.48
2018-12-29T14:23:50.253Z,19.67
2018-12-29T14:26:18.685Z,18.37
2018-12-29T14:28:47.087Z,17.00
2018-12-29T14:31:16.113Z,9.83
2018-12-29T14:33:44.798Z,12.43
2018-12-29T14:36:13.210Z,14.38
2018-12-29T14:38:41.619Z,16.57
2018-12-29T14:41:10.344Z,17.90
2018-12-29T14:43:39.013Z,7.10
2018-12-29T14:46:07.421Z,11.40
2018-12-29T14:48:36.261Z,13.70
2018-12-29T14:51:04.823Z,14.13
2018-12-29T14:53:33.227Z,17.23
2018-12-29T14:56:02.255Z,16.32
2018-12-29T14:58:30.660Z,16.00
2018-12-29T15:00:59.071Z,15.65
2018-12-29T15:03:27.803Z,14.00
2018-12-29T15:05:56.218Z,16.25
2018-12-29T15:08:25.273Z,15.83
2018-12-29T15:10:54.029Z,15.32
2018-12-29T15:13:22.741Z,16.00
2018-12-29T15:15:51.148Z,16.10
2018-12-29T15:18:19.938Z,14.40
2018-12-29T15:20:48.716Z,15.48
2018-12-29T15:23:17.506Z,15.05
2018-12-29T15:25:46.187Z,15.32
2018-12-29T15:28:14.876Z,15.40
2018-12-29T15:30:43.767Z,16.62
2018-12-29T15:33:12.166Z,14.58
2018-12-29T15:35:40.574Z,15.03
2018-12-29T15:38:09.637Z,14.98
2018-12-29T15:40:38.307Z,15.40
2018-12-29T15:43:06.946Z,14.30
2018-12-29T15:45:36.082Z,14.90
2018-12-29T15:48:04.491Z,14.87
2018-12-29T15:50:32.888Z,13.93
2018-12-29T15:53:02.710Z,13.60
2018-12-29T15:55:31.443Z,14.68
2018-12-29T15:58:00.547Z,15.55
2018-12-29T16:00:28.941Z,14.63
2018-12-29T16:02:57.815Z,12.88
2018-12-29T16:05:26.503Z,14.53
2018-12-29T16:07:55.181Z,15.30
2018-12-29T16:10:23.586Z,14.40
2018-12-29T16:12:52.259Z,15.60
2018-12-29T16:15:21.350Z,15.48
2018-12-29T16:17:50.042Z,15.50
2018-12-29T16:20:18.509Z,16.85
2018-12-29T16:22:47.616Z,15.60
2018-12-29T16:25:16.299Z,16.55
2018-12-29T16:27:44.794Z,15.75
2018-12-29T16:30:13.263Z,15.10
2018-12-29T16:32:42.052Z,15.70
2018-12-29T16:35:10.739Z,16.75
2018-12-29T16:37:39.150Z,16.60
2018-12-29T16:40:07.542Z,17.95
2018-12-29T16:42:36.601Z,19.75
2018-12-29T16:45:06.011Z,17.92
2018-12-29T16:47:34.405Z,20.10
2018-12-29T16:50:03.063Z,19.07
2018-12-29T16:52:31.746Z,19.05
2018-12-29T16:55:00.240Z,18.02
2018-12-29T16:57:29.021Z,19.35
2018-12-29T16:59:57.426Z,19.50
2018-12-29T17:02:26.007Z,16.85
2018-12-29T17:04:54.411Z,17.50
2018-12-29T17:07:22.890Z,19.12
2018-12-29T17:09:51.635Z,16.55
2018-12-29T17:12:20.411Z,16.70
2018-12-29T17:14:48.823Z,17.15
2018-12-29T17:17:17.218Z,17.20
2018-12-29T17:19:45.700Z,17.77
2018-12-29T17:22:14.181Z,10.18
2018-12-29T17:24:42.655Z,19.75
2018-12-29T17:27:11.405Z,19.23
2018-12-29T17:29:39.815Z,18.52
2018-12-29T17:32:08.215Z,21.12
2018-12-29T17:34:36.966Z,21.77
2018-12-29T17:37:05.372Z,24.77
2018-12-29T17:39:34.467Z,24.57
2018-12-29T17:42:03.123Z,24.55
2018-12-29T17:44:31.530Z,23.55
2018-12-29T17:47:00.018Z,25.60
2018-12-29T17:49:28.685Z,28.00
2018-12-29T17:51:57.456Z,29.30
2018-12-29T17:54:26.157Z,27.02
2018-12-29T17:56:55.038Z,30.40
2018-12-29T17:59:23.723Z,28.32
2018-12-29T18:01:52.519Z,28.62
2018-12-29T18:04:20.912Z,30.80
2018-12-29T18:06:49.398Z,32.80
2018-12-29T18:09:18.059Z,32.15
2018-12-29T18:11:46.754Z,30.48
2018-12-29T18:14:15.536Z,31.02
2018-12-29T18:16:44.222Z,30.95
2018-12-29T18:19:13.127Z,35.10
2018-12-29T18:21:41.616Z,31.70
2018-12-29T18:24:10.190Z,33.42
2018-12-29T18:26:38.674Z,32.33
2018-12-29T18:29:07.450Z,33.25
2018-12-29T18:31:35.885Z,33.98
2018-12-29T18:34:04.632Z,32.38
2018-12-29T18:36:33.033Z,32.67
2018-12-29T18:39:01.506Z,30.68
2018-12-29T18:41:30.268Z,33.80
2018-12-29T18:43:58.959Z,34.63
2018-12-29T18:46:27.643Z,33.10
2018-12-29T18:48:56.473Z,33.80
2018-12-29T18:51:24.947Z,33.92
2018-12-29T18:53:53.360Z,34.25
2018-12-29T18:56:22.619Z,22.77
2018-12-29T18:58:51.163Z,28.25
2018-12-29T19:01:19.579Z,27.90
2018-12-29T19:03:48.051Z,31.33
2018-12-29T19:06:16.446Z,31.00
2018-12-29T19:08:45.309Z,33.23
2018-12-29T19:11:14.107Z,37.80
2018-12-29T19:13:42.611Z,38.92
2018-12-29T19:16:11.020Z,39.53
2018-12-29T19:18:41.597Z,40.55
2018-12-29T19:21:09.963Z,39.42
2018-12-29T19:23:38.963Z,41.13
2018-12-29T19:26:07.538Z,40.52
2018-12-29T19:28:36.535Z,45.50
2018-12-29T19:31:05.223Z,44.33
2018-12-29T19:33:34.323Z,42.62
2018-12-29T19:36:03.421Z,44.70
2018-12-29T19:38:31.915Z,43.80
2018-12-29T19:41:00.583Z,46.53
2018-12-29T19:43:29.578Z,48.52
2018-12-29T19:45:58.037Z,46.18
2018-12-29T19:48:26.520Z,46.75
2018-12-29T19:50:55.322Z,42.00
2018-12-29T19:53:24.215Z,29.07
2018-12-29T19:55:52.902Z,37.23
2018-12-29T19:58:21.323Z,36.23
2018-12-29T20:00:49.718Z,40.90
2018-12-29T20:03:19.183Z,42.85
2018-12-29T20:05:48.286Z,41.45
2018-12-29T20:08:16.778Z,38.88
2018-12-29T20:10:45.174Z,43.20
2018-12-29T20:13:13.630Z,45.55
2018-12-29T20:15:42.078Z,45.00
2018-12-29T20:18:10.538Z,47.15
2018-12-29T20:20:39.187Z,47.40
2018-12-29T20:23:07.585Z,46.48
2018-12-29T20:25:36.327Z,50.90
2018-12-29T20:28:04.723Z,48.02
2018-12-29T20:30:33.122Z,45.33
2018-12-29T20:33:01.975Z,45.48
2018-12-29T20:35:30.668Z,49.38
2018-12-29T20:37:59.067Z,47.85
2018-12-29T20:40:27.482Z,51.98
2018-12-29T20:42:55.888Z,51.83
2018-12-29T20:45:24.586Z,48.80
2018-12-29T20:47:53.001Z,52.45
2018-12-29T20:50:21.803Z,50.17
2018-12-29T20:52:50.446Z,51.10
2018-12-29T20:55:18.859Z,55.12
2018-12-29T20:57:47.528Z,50.50
2018-12-29T21:00:15.943Z,54.63
2018-12-29T21:02:44.350Z,48.80
2018-12-29T21:05:13.055Z,51.70
2018-12-29T21:07:41.469Z,38.65
2018-12-29T21:10:09.884Z,52.33
2018-12-29T21:12:38.307Z,51.63
2018-12-29T21:15:06.722Z,47.08
2018-12-29T21:17:35.467Z,37.73
2018-12-29T21:20:04.062Z,48.70
2018-12-29T21:22:32.471Z,44.95
2018-12-29T21:25:00.882Z,44.13
2018-12-29T21:27:29.290Z,37.10
2018-12-29T21:29:57.995Z,39.60
2018-12-29T21:32:26.966Z,36.23
2018-12-29T21:34:55.458Z,36.08
2018-12-29T21:37:23.888Z,34.48
2018-12-29T21:39:52.391Z,36.73
2018-12-29T21:42:20.848Z,31.52
2018-12-29T21:44:49.247Z,28.80
2018-12-29T21:47:17.665Z,31.20
2018-12-29T21:49:46.075Z,30.45
2018-12-29T21:52:14.560Z,31.68
2018-12-29T21:54:42.967Z,30.95
2018-12-29T21:57:11.608Z,29.05
2018-12-29T21:59:40.138Z,30.08
2018-12-29T22:02:08.554Z,28.62
2018-12-29T22:04:36.955Z,26.62
2018-12-29T22:07:05.615Z,23.25
2018-12-29T22:09:34.299Z,26.68
2018-12-29T22:12:02.987Z,24.10
2018-12-29T22:14:32.073Z,20.40
2018-12-29T22:17:00.480Z,21.50
2018-12-29T22:19:29.149Z,16.17
2018-12-29T22:21:57.842Z,16.77
2018-12-29T22:24:26.519Z,15.53
2018-12-29T22:26:54.970Z,14.33
2018-12-29T22:29:23.358Z,12.82
2018-12-29T22:31:51.765Z,11.90
2018-12-29T22:34:20.176Z,11.88
2018-12-29T22:36:48.590Z,9.00
2018-12-29T22:39:17.067Z,11.78
2018-12-29T22:41:45.763Z,9.83
2018-12-29T22:44:14.479Z,9.40
2018-12-29T22:46:43.183Z,7.67
2018-12-29T22:49:11.568Z,7.45
2018-12-29T22:51:39.987Z,7.45
2018-12-29T22:54:08.381Z,6.85
2018-12-29T22:56:36.797Z,6.60
2018-12-29T22:59:05.181Z,4.47
2018-12-29T23:01:33.972Z,5.17
2018-12-29T23:04:02.748Z,4.25
2018-12-29T23:06:31.423Z,4.42
2018-12-29T23:09:00.522Z,4.80
2018-12-29T23:11:28.999Z,3.27
2018-12-29T23:13:57.401Z,5.28
2018-12-29T23:16:26.066Z,4.60
2018-12-29T23:18:54.767Z,4.67
2018-12-29T23:21:23.162Z,4.20
2018-12-29T23:23:51.815Z,4.58
2018-12-29T23:26:20.608Z,4.30
2018-12-29T23:28:49.289Z,4.62
2018-12-29T23:31:17.770Z,3.80
2018-12-29T23:33:46.562Z,4.03
2018-12-29T23:36:15.555Z,4.03
2018-12-29T23:38:43.971Z,3.87
2018-12-29T23:41:12.368Z,3.05
2018-12-29T23:43:41.163Z,4.12
2018-12-29T23:46:09.566Z,4.87
2018-12-29T23:48:38.051Z,3.35
2018-12-29T23:51:06.449Z,3.45
2018-12-29T23:53:34.865Z,3.70
2018-12-29T23:56:03.748Z,3.75
2018-12-29T23:58:32.155Z,3.55
